createdAt,value
2022-12-05T00:02:59.400Z,4.2
2022-12-05T00:08:22.079Z,4.2
2022-12-05T00:13:44.573Z,4.2
2022-12-05T00:19:07.532Z,4.2
2022-12-05T00:24:45.574Z,4.2
2022-12-05T00:30:22.745Z,4.2
2022-12-05T00:35:44.404Z,4.2
2022-12-05T00:41:21.675Z,4.2
2022-12-05T00:47:07.716Z,4.2
2022-12-05T00:52:29.917Z,4.2
2022-12-05T00:58:07.650Z,4.2
2022-12-05T01:03:46.407Z,4.2
2022-12-05T01:09:09.351Z,4.2
2022-12-05T01:14:34.604Z,4.2
2022-12-05T01:19:57.733Z,4.2
2022-12-05T01:25:35.251Z,4.1
2022-12-05T01:30:58.013Z,4.1
2022-12-05T01:36:36.664Z,4.1
2022-12-05T01:41:59.229Z,4.1
2022-12-05T01:47:25.730Z,4.1
2022-12-05T01:52:48.781Z,4.1
2022-12-05T01:58:11.209Z,4.1
2022-12-05T02:03:49.608Z,4.1
2022-12-05T02:08:57.223Z,4.1
2022-12-05T02:14:22.020Z,4.1
2022-12-05T02:19:59.432Z,4
2022-12-05T02:25:37.030Z,4
2022-12-05T02:31:14.793Z,4
2022-12-05T02:36:36.062Z,4
2022-12-05T02:42:14.490Z,4
2022-12-05T02:47:52.418Z,4
2022-12-05T02:53:29.913Z,4
2022-12-05T02:59:07.715Z,4
2022-12-05T03:04:45.253Z,4
2022-12-05T03:10:23.394Z,4
2022-12-05T03:15:45.950Z,4
2022-12-05T03:21:24.571Z,4
2022-12-05T03:27:02.208Z,4
2022-12-05T03:32:25.385Z,4
2022-12-05T03:38:02.034Z,4
2022-12-05T03:43:26.089Z,4.1
2022-12-05T03:49:03.922Z,4
2022-12-05T03:55:01.426Z,4.1
2022-12-05T04:00:38.897Z,4.1
2022-12-05T04:06:01.900Z,4.1
2022-12-05T04:11:40.487Z,4.1
2022-12-05T04:17:17.989Z,4.1
2022-12-05T04:22:57.590Z,4.1
2022-12-05T04:28:04.528Z,4.1
2022-12-05T04:33:27.623Z,4.1
2022-12-05T04:48:54.017Z,4.1
2022-12-05T04:54:22.697Z,4.1
2022-12-05T05:00:06.216Z,4.1
2022-12-05T05:05:49.085Z,4.1
2022-12-05T05:11:28.267Z,4.1
2022-12-05T05:17:06.694Z,4.1
2022-12-05T05:22:44.217Z,4.1
2022-12-05T05:28:24.660Z,4.1
2022-12-05T05:33:47.052Z,4.2
2022-12-05T05:39:29.969Z,4.2
2022-12-05T05:45:14.894Z,4.2
2022-12-05T05:50:59.243Z,4.2
2022-12-05T05:56:38.731Z,4.3
2022-12-05T06:01:53.404Z,4.3
2022-12-05T06:07:37.346Z,4.3
2022-12-05T06:13:15.441Z,4.3
2022-12-05T06:18:53.914Z,4.3
2022-12-05T06:24:38.000Z,4.3
2022-12-05T06:30:20.350Z,4.3
2022-12-05T06:35:58.445Z,4.4
2022-12-05T06:41:35.931Z,4.4
2022-12-05T06:47:13.977Z,4.5
2022-12-05T06:52:41.096Z,4.6
2022-12-05T06:58:18.813Z,4.8
2022-12-05T07:03:58.263Z,4.9
2022-12-05T07:09:42.187Z,5.1
2022-12-05T07:15:45.643Z,5.3
2022-12-05T07:21:52.997Z,5.5
2022-12-05T07:27:43.074Z,5.7
2022-12-05T07:33:05.782Z,5.9
2022-12-05T07:38:43.351Z,6.1
2022-12-05T07:44:22.180Z,6.4
2022-12-05T07:50:02.965Z,6.5
2022-12-05T07:55:40.319Z,6.6
2022-12-05T08:01:19.333Z,6.8
2022-12-05T08:07:02.498Z,6.9
2022-12-05T08:12:46.848Z,7.2
2022-12-05T08:18:27.273Z,7.4
2022-12-05T08:23:49.299Z,7.6
2022-12-05T08:29:27.553Z,7.8
2022-12-05T08:34:53.836Z,8.1
2022-12-05T08:40:33.524Z,8.3
2022-12-05T08:46:11.945Z,8.7
2022-12-05T08:51:53.817Z,9.1
2022-12-05T08:57:37.710Z,9.4
2022-12-05T09:03:20.931Z,9.7
2022-12-05T09:09:25.064Z,9.9
2022-12-05T09:15:02.924Z,10
2022-12-05T09:20:43.284Z,10.1
2022-12-05T09:26:25.174Z,10.3
2022-12-05T09:32:08.609Z,10.4
2022-12-05T09:38:15.519Z,10.7
2022-12-05T09:43:53.347Z,10.9
2022-12-05T09:49:32.615Z,11.1
2022-12-05T09:55:15.080Z,11.3
2022-12-05T10:00:58.834Z,11.4
2022-12-05T10:06:44.246Z,11.6
2022-12-05T10:12:22.715Z,11.6
2022-12-05T10:18:04.070Z,11.6
2022-12-05T10:24:16.810Z,11.6
2022-12-05T10:29:57.833Z,11.7
2022-12-05T10:35:44.382Z,11.8
2022-12-05T10:41:28.458Z,11.8
2022-12-05T10:47:11.659Z,11.9
2022-12-05T10:52:49.518Z,12.1
2022-12-05T10:59:10.430Z,12.2
2022-12-05T11:04:54.035Z,12.3
2022-12-05T11:11:05.191Z,12.3
2022-12-05T11:16:49.793Z,12.3
2022-12-05T11:22:28.149Z,12.3
2022-12-05T11:28:13.627Z,12.3
2022-12-05T11:33:52.009Z,12.3
2022-12-05T11:39:30.753Z,12.2
2022-12-05T11:45:00.682Z,12.2
2022-12-05T11:50:26.207Z,12.2
2022-12-05T11:56:41.921Z,12.1
2022-12-05T12:02:23.443Z,12.1
2022-12-05T12:08:05.470Z,12
2022-12-05T12:13:48.873Z,11.9
2022-12-05T12:19:33.390Z,11.8
2022-12-05T12:25:17.324Z,11.7
2022-12-05T12:30:57.190Z,11.6
2022-12-05T12:36:21.109Z,11.4
2022-12-05T12:42:00.438Z,11.3
2022-12-05T12:48:12.893Z,11.1
2022-12-05T12:53:52.305Z,11
2022-12-05T13:00:10.219Z,10.9
2022-12-05T13:05:53.689Z,10.8
2022-12-05T13:11:35.902Z,10.6
2022-12-05T13:17:02.626Z,10.5
2022-12-05T13:22:25.278Z,10.4
2022-12-05T13:28:08.415Z,10.3
2022-12-05T13:33:38.918Z,10.1
2022-12-05T13:39:21.645Z,9.9
2022-12-05T13:45:16.036Z,9.8
2022-12-05T13:50:59.973Z,9.6
2022-12-05T13:56:43.392Z,9.5
2022-12-05T14:02:26.878Z,9.4
2022-12-05T14:08:04.536Z,9.3
2022-12-05T14:13:42.576Z,9.1
2022-12-05T14:19:28.649Z,8.9
2022-12-05T14:25:10.667Z,8.8
2022-12-05T14:31:01.864Z,8.7
2022-12-05T14:36:40.103Z,8.6
2022-12-05T14:42:21.522Z,8.4
2022-12-05T14:47:50.829Z,8.3
2022-12-05T14:53:21.435Z,8.1
2022-12-05T14:59:06.490Z,7.9
2022-12-05T15:04:47.023Z,7.8
2022-12-05T15:11:02.415Z,7.7
2022-12-05T15:16:41.989Z,7.6
2022-12-05T15:22:24.357Z,7.4
2022-12-05T15:28:33.532Z,7.3
2022-12-05T15:33:56.387Z,7.2
2022-12-05T15:39:38.618Z,7.1
2022-12-05T15:45:25.157Z,6.9
2022-12-05T15:51:02.882Z,6.9
2022-12-05T15:56:46.901Z,6.8
2022-12-05T16:02:28.156Z,6.7
2022-12-05T16:08:11.419Z,6.6
2022-12-05T16:13:54.308Z,6.6
2022-12-05T16:25:35.659Z,6.4
2022-12-05T16:31:13.672Z,6.4
2022-12-05T16:36:52.503Z,6.3
2022-12-05T16:42:31.038Z,6.3
2022-12-05T16:48:16.764Z,6.2
2022-12-05T16:59:07.682Z,6.1
2022-12-05T17:05:01.139Z,6
2022-12-05T17:10:43.030Z,5.9
2022-12-05T17:16:23.950Z,5.9
2022-12-05T17:21:52.752Z,5.9
2022-12-05T17:27:30.888Z,5.8
2022-12-05T17:32:44.224Z,5.8
2022-12-05T17:38:22.443Z,5.8
2022-12-05T17:44:03.513Z,5.8
2022-12-05T17:49:42.934Z,5.7
2022-12-05T17:55:31.454Z,5.6
2022-12-05T18:00:53.332Z,5.6
2022-12-05T18:06:20.348Z,5.6
2022-12-05T18:11:42.734Z,5.6
2022-12-05T18:16:55.035Z,5.5
2022-12-05T18:22:02.397Z,5.5
2022-12-05T18:27:11.096Z,5.5
2022-12-05T18:32:52.491Z,5.4
2022-12-05T18:38:21.445Z,5.4
2022-12-05T18:43:59.573Z,5.4
2022-12-05T18:49:54.838Z,5.4
2022-12-05T18:56:36.553Z,5.4
2022-12-05T19:02:15.540Z,5.3
2022-12-05T19:07:57.007Z,5.3
2022-12-05T19:13:35.809Z,5.3
2022-12-05T19:18:44.998Z,5.3
2022-12-05T19:23:55.539Z,5.3
2022-12-05T19:29:33.971Z,5.3
2022-12-05T19:35:16.221Z,5.3
2022-12-05T19:40:24.676Z,5.2
2022-12-05T19:46:08.545Z,5.2
2022-12-05T19:51:32.048Z,5.2
2022-12-05T19:57:10.873Z,5.2
2022-12-05T20:02:56.875Z,5.2
2022-12-05T20:08:20.646Z,5.1
2022-12-05T20:14:16.406Z,5.1
2022-12-05T20:19:39.964Z,5.1
2022-12-05T20:25:03.321Z,5.1
2022-12-05T20:30:42.193Z,5.1
2022-12-05T20:36:19.889Z,5.1
2022-12-05T20:41:46.081Z,5.1
2022-12-05T20:47:26.311Z,5.1
2022-12-05T20:53:04.473Z,5
2022-12-05T20:58:43.289Z,4.9
2022-12-05T21:04:27.894Z,4.9
2022-12-05T21:10:08.271Z,4.9
2022-12-05T21:15:46.486Z,4.9
2022-12-05T21:21:25.640Z,4.8
2022-12-05T21:27:03.288Z,4.8
2022-12-05T21:32:41.703Z,4.8
2022-12-05T21:38:03.654Z,4.8
2022-12-05T21:48:47.413Z,4.7
2022-12-05T21:54:25.669Z,4.7
2022-12-05T22:00:09.268Z,4.7
2022-12-05T22:05:32.329Z,4.6
2022-12-05T22:11:15.519Z,4.7
2022-12-05T22:16:53.427Z,4.6
2022-12-05T22:22:32.156Z,4.6
2022-12-05T22:28:09.809Z,4.6
2022-12-05T22:33:50.777Z,4.7
2022-12-05T22:39:19.197Z,4.6
2022-12-05T22:44:56.896Z,4.7
2022-12-05T22:50:36.690Z,4.7
2022-12-05T22:56:14.772Z,4.7
2022-12-05T23:01:52.640Z,4.6
2022-12-05T23:07:35.350Z,4.6
2022-12-05T23:13:13.483Z,4.6
2022-12-05T23:18:52.346Z,4.6
2022-12-05T23:24:31.048Z,4.6
2022-12-05T23:30:09.064Z,4.6
2022-12-05T23:35:48.971Z,4.6
2022-12-05T23:41:27.366Z,4.6
2022-12-05T23:47:04.973Z,4.6
2022-12-05T23:52:44.819Z,4.6
2022-12-05T23:58:28.364Z,4.6
